Time;durP1;ratioP1;P1;durP2;ratioP2;P2;SDS_P1;SDS_P2;PMS_P1;PMS_P2;Temp;Humidity;BMP_temperature;BMP_pressure;BME280_temperature;BME280_humidity;BME280_pressure;Samples;Min_cycle;Max_cycle;Signal;HPM_P1;HPM_P2
2023/07/17 00:01:44;;;;;;;11.63;3.38;;;17.20;99.90;;;;;;5015052;28;259126;-68
2023/07/17 00:04:11;;;;;;;13.50;3.58;;;17.10;99.90;;;;;;5038045;28;20041;-67
2023/07/17 00:06:37;;;;;;;12.60;3.58;;;17.10;99.90;;;;;;5012925;28;276846;-67
2023/07/17 00:09:04;;;;;;;14.63;3.40;;;17.10;99.90;;;;;;5039310;28;20052;-67
2023/07/17 00:11:30;;;;;;;12.77;3.72;;;17.10;99.90;;;;;;5009469;28;264841;-67
2023/07/17 00:13:56;;;;;;;11.63;3.40;;;17.10;99.90;;;;;;5038140;28;20052;-67
2023/07/17 00:16:22;;;;;;;11.85;3.35;;;17.00;99.90;;;;;;5017465;28;269266;-66
2023/07/17 00:18:48;;;;;;;11.98;3.42;;;17.10;99.90;;;;;;5040315;28;20452;-66
2023/07/17 00:21:14;;;;;;;13.48;3.60;;;17.10;99.90;;;;;;5012464;28;266001;-66
2023/07/17 00:23:40;;;;;;;14.43;3.42;;;17.10;99.90;;;;;;5041068;28;20057;-66
2023/07/17 00:26:06;;;;;;;16.40;3.10;;;17.10;99.90;;;;;;5009456;28;258028;-67
2023/07/17 00:28:32;;;;;;;11.95;3.40;;;17.10;99.90;;;;;;5042615;28;20060;-67
2023/07/17 00:30:59;;;;;;;10.13;3.38;;;17.00;99.90;;;;;;5029196;28;20065;-67
2023/07/17 00:33:25;;;;;;;13.98;3.58;;;17.00;99.90;;;;;;5025545;28;266131;-67
2023/07/17 00:35:51;;;;;;;17.42;4.07;;;16.80;99.90;;;;;;5027572;28;20061;-68
2023/07/17 00:38:18;;;;;;;14.30;3.80;;;16.70;99.90;;;;;;5024038;28;253479;-67
2023/07/17 00:40:44;;;;;;;13.30;3.75;;;16.40;99.90;;;;;;5027942;28;20390;-68
2023/07/17 00:43:11;;;;;;;16.25;4.47;;;16.30;99.90;;;;;;5020598;28;271456;-68
2023/07/17 00:45:39;;;;;;;14.30;4.72;;;16.10;99.90;;;;;;5027313;28;20530;-68
2023/07/17 00:48:06;;;;;;;14.50;3.70;;;16.00;99.90;;;;;;5021919;28;252628;-68
2023/07/17 00:50:32;;;;;;;15.30;3.88;;;15.90;99.90;;;;;;5041258;28;20137;-67
2023/07/17 00:52:59;;;;;;;17.73;4.22;;;15.90;99.90;;;;;;5016104;28;257083;-67
2023/07/17 00:55:25;;;;;;;18.80;4.18;;;15.80;99.90;;;;;;5026946;28;21411;-68
2023/07/17 00:57:52;;;;;;;17.48;4.53;;;15.80;99.90;;;;;;4995751;28;271291;-68
2023/07/17 01:00:22;;;;;;;16.50;3.90;;;15.80;99.90;;;;;;5027913;28;20053;-68
2023/07/17 01:02:50;;;;;;;15.85;3.95;;;15.80;99.90;;;;;;5005725;28;250521;-69
2023/07/17 01:05:16;;;;;;;17.63;3.90;;;15.70;99.90;;;;;;5025015;28;20046;-69
2023/07/17 01:07:43;;;;;;;16.30;3.83;;;15.70;99.90;;;;;;5019501;28;273929;-69
2023/07/17 01:10:09;;;;;;;18.75;4.03;;;15.70;99.90;;;;;;5029260;28;20061;-69
2023/07/17 01:12:36;;;;;;;17.58;4.22;;;15.70;99.90;;;;;;5021855;28;254835;-69
2023/07/17 01:15:03;;;;;;;17.65;3.90;;;15.70;99.90;;;;;;5029108;28;20072;-69
2023/07/17 01:17:30;;;;;;;16.75;4.03;;;15.70;99.90;;;;;;5018064;28;262454;-70
2023/07/17 01:19:56;;;;;;;16.02;3.80;;;15.60;99.90;;;;;;5028936;28;20049;-69
2023/07/17 01:22:29;;;;;;;19.83;3.80;;;15.60;99.90;;;;;;5015846;28;274153;-70
2023/07/17 01:24:55;;;;;;;13.50;3.67;;;15.60;99.90;;;;;;5025565;28;20068;-69
2023/07/17 01:27:21;;;;;;;15.88;3.60;;;15.60;99.90;;;;;;5005756;28;262032;-70
2023/07/17 01:29:48;;;;;;;12.48;3.33;;;15.50;99.90;;;;;;5026522;28;20053;-69
2023/07/17 01:32:15;;;;;;;17.10;4.00;;;15.50;99.90;;;;;;5007638;28;261505;-69
2023/07/17 01:34:41;;;;;;;14.88;3.53;;;15.50;99.90;;;;;;5030678;28;20053;-69
2023/07/17 01:37:08;;;;;;;15.82;3.47;;;15.40;99.90;;;;;;5015527;28;271403;-69
2023/07/17 01:39:34;;;;;;;14.68;3.00;;;15.40;99.90;;;;;;5033120;28;20060;-69
2023/07/17 01:42:00;;;;;;;12.23;3.22;;;15.40;99.90;;;;;;5013716;28;273305;-69
2023/07/17 01:44:28;;;;;;;12.60;2.88;;;15.30;99.90;;;;;;5030335;28;20104;-69
2023/07/17 01:46:55;;;;;;;14.85;2.88;;;15.20;99.90;;;;;;5011774;28;253655;-70
2023/07/17 01:49:21;;;;;;;12.30;3.20;;;15.20;99.90;;;;;;5035773;28;20037;-69
2023/07/17 01:51:47;;;;;;;12.13;2.80;;;15.10;99.90;;;;;;5026147;28;248113;-70
2023/07/17 01:54:13;;;;;;;10.57;2.50;;;15.10;99.90;;;;;;5032389;28;20041;-69
2023/07/17 01:56:39;;;;;;;11.07;2.63;;;15.00;99.90;;;;;;4997064;28;263076;-70
2023/07/17 01:59:05;;;;;;;10.77;2.33;;;15.00;99.90;;;;;;5035403;28;20045;-69
2023/07/17 02:01:33;;;;;;;10.90;2.75;;;14.90;99.90;;;;;;5007939;28;194462;-69
2023/07/17 02:04:00;;;;;;;11.95;2.92;;;14.90;99.90;;;;;;5035532;28;20045;-70
2023/07/17 02:06:26;;;;;;;9.52;2.33;;;14.90;99.90;;;;;;5011149;28;250501;-70
2023/07/17 02:08:52;;;;;;;10.07;2.50;;;14.90;99.90;;;;;;5036997;28;20052;-70
2023/07/17 02:11:19;;;;;;;10.73;2.50;;;14.80;99.90;;;;;;5010632;28;275757;-70
2023/07/17 02:13:45;;;;;;;13.05;2.92;;;14.80;99.90;;;;;;5028322;28;20050;-70
2023/07/17 02:16:11;;;;;;;12.35;3.00;;;14.80;99.90;;;;;;5007365;28;276688;-69
2023/07/17 02:18:37;;;;;;;9.88;2.40;;;14.80;99.90;;;;;;5041417;28;20052;-70
2023/07/17 02:21:04;;;;;;;13.63;2.80;;;14.80;99.90;;;;;;5007708;28;273222;-69
2023/07/17 02:23:30;;;;;;;13.13;2.60;;;14.80;99.90;;;;;;5035053;28;20054;-70
2023/07/17 02:25:56;;;;;;;12.57;2.70;;;14.80;99.90;;;;;;5026346;28;20072;-70
2023/07/17 02:28:22;;;;;;;16.23;3.00;;;14.80;99.90;;;;;;5000960;28;140705;-70
2023/07/17 02:30:49;;;;;;;10.07;2.67;;;14.70;99.90;;;;;;5030672;28;20064;-70
2023/07/17 02:33:15;;;;;;;12.25;3.20;;;14.80;99.90;;;;;;4994881;28;228834;-71
2023/07/17 02:35:41;;;;;;;11.55;2.65;;;14.80;99.90;;;;;;5031501;28;20482;-70
2023/07/17 02:38:07;;;;;;;9.68;2.50;;;14.80;99.90;;;;;;5023920;28;267830;-70
2023/07/17 02:40:33;;;;;;;12.57;2.90;;;14.80;99.90;;;;;;5032411;28;20076;-71
2023/07/17 02:42:59;;;;;;;13.30;3.00;;;14.80;99.90;;;;;;5025938;28;274843;-71
2023/07/17 02:45:25;;;;;;;12.82;3.15;;;14.80;99.90;;;;;;5024559;28;20596;-70
2023/07/17 02:47:52;;;;;;;10.55;2.88;;;14.70;99.90;;;;;;5025718;28;269288;-70
2023/07/17 02:50:19;;;;;;;10.80;2.70;;;14.70;99.90;;;;;;5032279;28;20510;-70
2023/07/17 02:52:45;;;;;;;12.98;2.97;;;14.70;99.90;;;;;;5021413;28;266787;-70
2023/07/17 02:55:11;;;;;;;11.38;2.63;;;14.70;99.90;;;;;;5030006;28;20078;-70
2023/07/17 02:57:37;;;;;;;16.63;3.22;;;14.60;99.90;;;;;;5006368;28;271486;-70
2023/07/17 03:00:08;;;;;;;12.02;2.70;;;14.60;99.90;;;;;;5033510;28;20497;-70
2023/07/17 03:02:35;;;;;;;;;;;14.60;99.90;;;;;;5019052;28;270730;-71
2023/07/17 03:05:10;;;;;;;14.13;2.92;;;14.60;99.90;;;;;;5028902;28;19924;-71
2023/07/17 03:07:40;;;;;;;14.73;3.25;;;14.60;99.90;;;;;;5025766;28;253627;-71
2023/07/17 03:10:08;;;;;;;10.13;2.65;;;14.60;99.90;;;;;;5030837;28;20061;-71
2023/07/17 03:12:34;;;;;;;11.82;2.70;;;14.60;99.90;;;;;;5023546;28;273460;-70
2023/07/17 03:15:00;;;;;;;13.52;3.05;;;14.60;99.90;;;;;;5032862;28;20060;-71
2023/07/17 03:17:26;;;;;;;11.23;2.90;;;14.50;99.90;;;;;;5017078;28;94062;-71
2023/07/17 03:19:52;;;;;;;10.18;2.75;;;14.60;99.90;;;;;;5033802;28;20056;-70
2023/07/17 03:22:18;;;;;;;12.27;3.20;;;14.60;99.90;;;;;;5034593;28;79925;-70
2023/07/17 03:24:45;;;;;;;14.02;3.22;;;14.50;99.90;;;;;;5035780;28;20053;-71
2023/07/17 03:27:11;;;;;;;14.13;2.90;;;14.50;99.90;;;;;;4995779;28;34229;-71
2023/07/17 03:29:37;;;;;;;11.88;3.15;;;14.50;99.90;;;;;;5033740;28;20056;-69
2023/07/17 03:32:03;;;;;;;11.10;2.83;;;14.50;99.90;;;;;;5014594;28;255668;-71
2023/07/17 03:34:29;;;;;;;15.65;3.20;;;14.50;99.90;;;;;;5036265;28;20443;-71
2023/07/17 03:36:56;;;;;;;14.82;3.20;;;14.50;99.90;;;;;;5015226;28;269895;-71
2023/07/17 03:39:22;;;;;;;14.70;3.40;;;14.50;99.90;;;;;;5037734;28;20084;-70
2023/07/17 03:41:48;;;;;;;10.32;2.60;;;14.50;99.90;;;;;;5021563;28;51829;-70
2023/07/17 03:44:14;;;;;;;14.25;3.00;;;14.50;99.90;;;;;;5037229;28;20050;-71
2023/07/17 03:46:40;;;;;;;13.73;2.85;;;14.60;99.90;;;;;;5017955;28;263046;-70
2023/07/17 03:49:06;;;;;;;14.75;3.42;;;14.50;99.90;;;;;;5038985;28;20069;-70
2023/07/17 03:51:32;;;;;;;14.98;3.53;;;14.50;99.90;;;;;;5017345;28;271637;-70
2023/07/17 03:53:58;;;;;;;15.07;3.42;;;14.60;99.90;;;;;;5035004;28;20049;-70
2023/07/17 03:56:25;;;;;;;15.10;3.33;;;14.60;99.90;;;;;;4998971;28;257336;-71
2023/07/17 03:58:51;;;;;;;15.05;3.35;;;14.60;99.90;;;;;;5037899;28;20060;-70
2023/07/17 04:01:17;;;;;;;13.95;3.15;;;14.60;99.90;;;;;;5009973;28;270277;-70
2023/07/17 04:03:44;;;;;;;12.90;2.97;;;14.60;99.90;;;;;;5037057;28;20064;-70
2023/07/17 04:06:10;;;;;;;14.90;3.38;;;14.60;99.90;;;;;;4994727;28;254901;-70
2023/07/17 04:08:36;;;;;;;13.18;3.00;;;14.60;99.90;;;;;;5042785;28;20065;-70
2023/07/17 04:11:02;;;;;;;15.57;3.17;;;14.60;99.90;;;;;;5009443;28;273476;-70
2023/07/17 04:13:28;;;;;;;11.88;3.00;;;14.70;99.90;;;;;;5008101;28;20065;-71
2023/07/17 04:15:54;;;;;;;14.40;3.10;;;14.70;99.90;;;;;;5005464;28;20069;-71
2023/07/17 04:18:20;;;;;;;11.18;2.75;;;14.70;99.90;;;;;;4991040;28;270226;-69
2023/07/17 04:20:46;;;;;;;13.85;3.60;;;14.70;99.90;;;;;;5006649;28;20054;-70
2023/07/17 04:23:12;;;;;;;19.92;3.80;;;14.70;99.90;;;;;;4998806;28;315535;-73
2023/07/17 04:25:42;;;;;;;15.02;2.90;;;14.70;99.90;;;;;;5003843;28;20046;-70
2023/07/17 04:28:08;;;;;;;13.80;3.30;;;14.80;99.90;;;;;;4998338;28;274797;-71
2023/07/17 04:30:37;;;;;;;15.45;3.30;;;14.80;99.90;;;;;;5007920;28;20057;-70
2023/07/17 04:33:05;;;;;;;13.85;3.33;;;14.90;99.90;;;;;;4987958;28;255147;-70
2023/07/17 04:35:39;;;;;;;13.82;2.95;;;15.00;99.90;;;;;;5022164;28;20046;-70
2023/07/17 04:38:05;;;;;;;15.18;3.22;;;15.00;99.90;;;;;;5002751;28;267724;-71
2023/07/17 04:40:31;;;;;;;16.05;3.20;;;15.00;99.90;;;;;;5009542;28;20129;-71
2023/07/17 04:43:00;;;;;;;15.90;3.00;;;15.10;99.90;;;;;;5000390;28;263531;-70
2023/07/17 04:45:27;;;;;;;14.10;3.03;;;15.10;99.90;;;;;;5004323;28;20061;-71
2023/07/17 04:47:54;;;;;;;15.50;3.00;;;15.10;99.90;;;;;;5002703;28;278304;-70
2023/07/17 04:50:25;;;;;;;17.58;3.42;;;15.20;99.90;;;;;;5007474;28;20423;-70
2023/07/17 04:52:51;;;;;;;10.88;2.85;;;15.20;99.90;;;;;;4981877;28;260466;-69
2023/07/17 04:55:17;;;;;;;12.90;3.17;;;15.20;99.90;;;;;;4998217;28;20058;-72
2023/07/17 04:57:43;;;;;;;11.75;3.10;;;15.30;99.90;;;;;;4980621;28;274465;-71
2023/07/17 05:00:11;;;;;;;16.48;3.50;;;15.30;99.90;;;;;;5001622;28;20054;-71
2023/07/17 05:02:37;;;;;;;11.32;2.97;;;15.40;99.90;;;;;;4995592;28;261529;-71
2023/07/17 05:05:03;;;;;;;12.65;3.13;;;15.40;99.90;;;;;;5006276;28;20049;-70
2023/07/17 05:07:29;;;;;;;12.65;3.47;;;15.50;99.90;;;;;;4993843;28;273582;-71
2023/07/17 05:09:55;;;;;;;12.60;3.00;;;15.50;99.90;;;;;;5009781;28;20585;-71
2023/07/17 05:12:22;;;;;;;12.88;3.10;;;15.50;99.90;;;;;;4992918;28;274945;-70
2023/07/17 05:14:48;;;;;;;13.45;3.47;;;15.60;99.90;;;;;;5008319;28;20065;-71
2023/07/17 05:17:14;;;;;;;19.33;3.22;;;15.70;99.90;;;;;;4994074;28;274398;-71
2023/07/17 05:19:40;;;;;;;13.52;3.53;;;15.80;99.90;;;;;;5009676;28;20106;-71
2023/07/17 05:22:06;;;;;;;17.27;3.67;;;15.90;99.90;;;;;;4995059;28;276381;-71
2023/07/17 05:24:32;;;;;;;12.95;3.53;;;16.00;99.90;;;;;;5008967;28;20054;-71
2023/07/17 05:26:58;;;;;;;13.40;3.10;;;16.10;99.90;;;;;;4991924;28;281314;-71
2023/07/17 05:29:24;;;;;;;15.30;3.63;;;16.10;99.90;;;;;;5012929;28;20065;-71
2023/07/17 05:31:51;;;;;;;13.65;3.55;;;16.20;99.90;;;;;;4992936;28;267826;-70
2023/07/17 05:34:17;;;;;;;14.55;3.25;;;16.10;99.90;;;;;;5014458;28;20045;-71
2023/07/17 05:36:43;;;;;;;18.02;3.50;;;16.00;99.90;;;;;;4995783;28;271048;-70
2023/07/17 05:39:09;;;;;;;14.27;3.42;;;16.00;99.90;;;;;;5037489;28;20069;-70
2023/07/17 05:41:35;;;;;;;15.70;3.30;;;16.10;99.90;;;;;;5008356;28;261822;-70
2023/07/17 05:44:01;;;;;;;12.63;3.05;;;16.20;99.90;;;;;;5035480;28;20057;-69
2023/07/17 05:46:28;;;;;;;13.73;3.55;;;16.20;99.90;;;;;;5008648;28;268893;-69
2023/07/17 05:48:54;;;;;;;15.10;3.47;;;16.30;99.90;;;;;;5031205;28;20049;-70
2023/07/17 05:51:20;;;;;;;11.55;2.85;;;16.30;99.90;;;;;;5004146;28;257770;-69
2023/07/17 05:53:46;;;;;;;16.95;3.20;;;16.30;99.90;;;;;;5022858;28;20046;-69
2023/07/17 05:56:14;;;;;;;12.90;3.42;;;16.20;99.90;;;;;;4994361;28;256902;-69
2023/07/17 05:58:41;;;;;;;16.75;3.80;;;16.20;99.90;;;;;;5026967;28;20073;-69
2023/07/17 06:01:07;;;;;;;13.15;3.70;;;16.20;99.90;;;;;;5004967;28;275721;-68
2023/07/17 06:03:33;;;;;;;10.88;3.10;;;16.30;99.90;;;;;;5033914;28;20426;-68
2023/07/17 06:05:59;;;;;;;13.30;3.47;;;16.60;99.90;;;;;;5021270;28;20076;-69
2023/07/17 06:08:25;;;;;;;13.73;3.78;;;16.80;99.90;;;;;;5022812;28;266814;-69
2023/07/17 06:10:51;;;;;;;12.82;3.50;;;16.90;99.90;;;;;;5026690;28;20053;-70
2023/07/17 06:13:19;;;;;;;14.00;3.45;;;17.20;99.90;;;;;;5009965;28;265907;-69
2023/07/17 06:15:45;;;;;;;12.65;3.53;;;17.40;99.90;;;;;;5028584;28;20073;-69
2023/07/17 06:18:11;;;;;;;12.48;3.40;;;17.70;99.90;;;;;;5025443;28;262266;-69
2023/07/17 06:20:37;;;;;;;12.98;3.25;;;17.80;99.90;;;;;;5028946;28;20045;-69
2023/07/17 06:23:03;;;;;;;14.55;3.53;;;17.70;99.90;;;;;;5019588;28;265893;-70
2023/07/17 06:25:30;;;;;;;12.93;3.17;;;17.60;99.90;;;;;;5027187;28;20045;-68
2023/07/17 06:27:56;;;;;;;14.05;3.38;;;17.40;99.90;;;;;;5008675;28;261927;-69
2023/07/17 06:30:22;;;;;;;14.35;3.35;;;17.20;99.90;;;;;;5028459;28;20045;-67
2023/07/17 06:32:48;;;;;;;15.95;3.80;;;17.10;99.90;;;;;;5019868;28;267348;-68
2023/07/17 06:35:14;;;;;;;12.52;3.40;;;17.20;99.90;;;;;;5023302;28;20049;-69
2023/07/17 06:37:40;;;;;;;11.98;3.63;;;17.40;99.90;;;;;;5021028;28;261329;-69
2023/07/17 06:40:07;;;;;;;14.15;4.30;;;17.60;99.90;;;;;;5032206;28;20029;-70
2023/07/17 06:42:34;;;;;;;14.45;3.67;;;17.80;99.90;;;;;;5018744;28;275004;-69
2023/07/17 06:45:00;;;;;;;14.90;3.30;;;17.90;99.90;;;;;;5032952;28;20050;-69
2023/07/17 06:47:26;;;;;;;16.15;4.05;;;17.90;99.90;;;;;;5020495;28;249260;-70
2023/07/17 06:49:53;;;;;;;18.38;4.05;;;18.10;99.90;;;;;;5033744;28;20064;-67
2023/07/17 06:52:19;;;;;;;14.55;3.75;;;18.10;99.90;;;;;;5018481;28;257592;-67
2023/07/17 06:54:45;;;;;;;14.25;3.97;;;18.30;99.90;;;;;;5032957;28;20064;-69
2023/07/17 06:57:12;;;;;;;15.50;4.43;;;18.50;99.90;;;;;;5004852;28;273183;-68
2023/07/17 06:59:38;;;;;;;18.00;4.72;;;18.40;99.90;;;;;;5030063;28;20527;-69
2023/07/17 07:02:04;;;;;;;13.27;3.90;;;18.30;99.90;;;;;;5016073;28;259305;-68
2023/07/17 07:04:30;;;;;;;14.02;4.15;;;18.50;99.90;;;;;;5030849;28;20053;-69
2023/07/17 07:06:56;;;;;;;13.40;4.13;;;18.50;99.90;;;;;;5012789;28;144547;-68
2023/07/17 07:09:22;;;;;;;14.18;4.35;;;18.70;99.90;;;;;;5023985;28;20053;-69
2023/07/17 07:11:48;;;;;;;12.75;3.75;;;18.70;99.90;;;;;;5011850;28;272294;-68
2023/07/17 07:14:14;;;;;;;16.63;4.20;;;18.50;99.90;;;;;;5030569;28;20391;-68
2023/07/17 07:16:40;;;;;;;15.32;4.20;;;18.40;99.90;;;;;;5020575;28;261224;-69
2023/07/17 07:19:06;;;;;;;14.05;4.20;;;18.40;99.90;;;;;;5035672;28;20419;-68
2023/07/17 07:21:33;;;;;;;14.80;4.20;;;18.70;99.90;;;;;;5018778;28;249713;-69
2023/07/17 07:23:59;;;;;;;17.15;4.68;;;18.50;99.90;;;;;;5040137;28;20053;-69
2023/07/17 07:26:25;;;;;;;16.40;4.30;;;18.40;99.90;;;;;;5012911;28;272347;-69
2023/07/17 07:28:51;;;;;;;14.90;4.20;;;18.80;99.90;;;;;;5027834;28;20050;-69
2023/07/17 07:31:17;;;;;;;19.05;4.78;;;19.10;99.90;;;;;;5012779;28;269347;-69
2023/07/17 07:33:43;;;;;;;13.80;4.03;;;19.20;99.90;;;;;;5039351;28;20053;-70
2023/07/17 07:36:09;;;;;;;14.43;4.30;;;19.60;99.90;;;;;;5013735;28;269944;-69
2023/07/17 07:38:35;;;;;;;14.38;4.07;;;19.90;99.90;;;;;;5043527;28;20060;-70
2023/07/17 07:41:01;;;;;;;14.15;3.88;;;20.10;99.90;;;;;;5012594;28;269893;-69
2023/07/17 07:43:27;;;;;;;14.32;4.20;;;20.10;99.90;;;;;;5045821;28;20057;-70
2023/07/17 07:45:54;;;;;;;17.75;4.80;;;20.10;99.90;;;;;;5033340;28;20045;-69
2023/07/17 07:48:20;;;;;;;13.93;4.13;;;20.10;99.90;;;;;;5016493;28;94286;-70
2023/07/17 07:50:46;;;;;;;14.57;4.65;;;19.80;99.90;;;;;;5028015;28;20624;-69
2023/07/17 07:53:12;;;;;;;16.35;5.07;;;19.50;99.90;;;;;;5002188;28;257109;-69
2023/07/17 07:55:38;;;;;;;15.25;4.70;;;19.20;99.90;;;;;;5031412;28;20056;-69
2023/07/17 07:58:04;;;;;;;16.00;4.97;;;19.00;99.90;;;;;;5012843;28;272125;-69
2023/07/17 08:00:31;;;;;;;14.65;5.03;;;18.80;99.90;;;;;;5025591;28;20084;-70
2023/07/17 08:02:57;;;;;;;20.52;5.13;;;18.70;99.90;;;;;;5025760;28;276817;-69
2023/07/17 08:05:23;;;;;;;15.07;4.40;;;18.70;99.90;;;;;;5032749;28;20045;-69
2023/07/17 08:07:50;;;;;;;14.50;4.40;;;18.50;99.90;;;;;;4991510;28;183224;-69
2023/07/17 08:10:16;;;;;;;15.05;4.30;;;18.40;99.90;;;;;;5025884;28;20057;-70
2023/07/17 08:12:42;;;;;;;16.63;4.97;;;18.30;99.90;;;;;;5021376;28;262233;-69
2023/07/17 08:15:08;;;;;;;16.67;4.70;;;18.40;99.90;;;;;;5032143;28;20529;-70
2023/07/17 08:17:35;;;;;;;16.20;4.13;;;18.40;99.90;;;;;;5017071;28;251316;-69
2023/07/17 08:20:01;;;;;;;15.70;4.45;;;18.60;99.90;;;;;;5031616;28;20057;-70
2023/07/17 08:22:27;;;;;;;14.20;3.45;;;19.10;99.90;;;;;;5019223;28;311429;-70
2023/07/17 08:24:53;;;;;;;16.25;4.18;;;19.10;99.90;;;;;;5030804;28;20056;-69
2023/07/17 08:27:19;;;;;;;13.18;3.90;;;19.10;99.90;;;;;;5000695;28;253549;-68
2023/07/17 08:29:45;;;;;;;14.90;4.00;;;19.00;99.90;;;;;;5013036;28;20054;-70
2023/07/17 08:32:11;;;;;;;12.43;4.13;;;18.90;99.90;;;;;;4999073;28;247187;-68
2023/07/17 08:34:37;;;;;;;13.10;4.03;;;19.10;99.90;;;;;;5030588;28;20057;-69
2023/07/17 08:37:04;;;;;;;15.93;4.05;;;19.00;99.90;;;;;;4992086;28;221170;-68
2023/07/17 08:39:30;;;;;;;15.65;4.55;;;18.90;99.90;;;;;;5035167;28;20064;-69
2023/07/17 08:41:56;;;;;;;14.32;4.03;;;19.10;99.90;;;;;;5019451;28;24774;-69
2023/07/17 08:44:23;;;;;;;15.85;4.00;;;19.80;99.90;;;;;;5021471;28;20601;-69
2023/07/17 08:46:51;;;;;;;13.30;3.83;;;20.60;99.90;;;;;;5010354;28;262871;-69
2023/07/17 08:49:19;;;;;;;15.82;4.00;;;20.70;99.90;;;;;;5031973;28;20050;-68
2023/07/17 08:51:51;;;;;;;16.83;4.05;;;20.50;99.90;;;;;;5016331;28;279452;-70
2023/07/17 08:54:18;;;;;;;12.23;2.90;;;20.10;99.90;;;;;;5039237;28;20057;-69
2023/07/17 08:56:44;;;;;;;12.40;3.10;;;19.70;99.90;;;;;;5000857;28;256136;-70
2023/07/17 08:59:10;;;;;;;11.13;2.78;;;19.40;99.90;;;;;;5035959;28;20057;-70
2023/07/17 09:01:37;;;;;;;11.45;2.80;;;19.30;99.90;;;;;;5016212;28;84677;-71
2023/07/17 09:04:04;;;;;;;11.80;3.20;;;19.50;99.90;;;;;;5037519;28;20076;-68
2023/07/17 09:06:30;;;;;;;11.60;2.65;;;19.60;99.90;;;;;;5007585;28;253121;-68
2023/07/17 09:08:56;;;;;;;12.23;3.05;;;19.40;99.90;;;;;;5026361;28;20057;-68
2023/07/17 09:11:22;;;;;;;14.45;3.83;;;19.30;99.90;;;;;;5014563;28;260393;-70
2023/07/17 09:13:51;;;;;;;13.35;3.10;;;19.50;99.90;;;;;;5036365;28;20064;-69
2023/07/17 09:16:20;;;;;;;11.23;2.83;;;20.60;99.90;;;;;;5010430;28;274071;-69
2023/07/17 09:18:48;;;;;;;14.10;3.17;;;21.50;98.70;;;;;;5035699;28;20088;-69
2023/07/17 09:21:17;;;;;;;9.82;2.38;;;21.80;98.40;;;;;;5012662;28;260097;-70
2023/07/17 09:23:46;;;;;;;10.60;2.45;;;21.30;96.50;;;;;;5041327;28;20522;-70
2023/07/17 09:26:14;;;;;;;8.38;2.00;;;21.10;97.60;;;;;;5007864;28;269697;-70
2023/07/17 09:28:46;;;;;;;9.63;2.25;;;21.80;96.40;;;;;;5024600;28;20521;-69
2023/07/17 09:31:12;;;;;;;9.07;2.23;;;22.00;95.40;;;;;;5011350;28;275987;-69
2023/07/17 09:33:41;;;;;;;10.82;2.20;;;21.90;96.10;;;;;;5039027;28;20053;-70
2023/07/17 09:36:09;;;;;;;9.68;2.25;;;22.30;96.40;;;;;;5010271;28;260401;-70
2023/07/17 09:38:35;;;;;;;12.05;2.20;;;23.00;95.20;;;;;;5042239;28;20057;-70
2023/07/17 09:41:17;;;;;;;11.55;2.30;;;23.40;94.80;;;;;;5011571;28;270344;-69
2023/07/17 09:43:50;;;;;;;11.40;2.60;;;23.90;94.20;;;;;;5040181;28;20049;-70
2023/07/17 09:46:16;;;;;;;9.43;2.10;;;24.50;93.90;;;;;;5010122;28;271297;-71
2023/07/17 09:48:43;;;;;;;10.10;2.33;;;24.90;93.70;;;;;;5041530;28;20053;-70
2023/07/17 09:51:11;;;;;;;13.52;2.70;;;25.10;92.70;;;;;;5012033;28;252944;-70
2023/07/17 09:53:38;;;;;;;9.68;1.95;;;24.70;93.60;;;;;;5035104;28;20057;-69
2023/07/17 09:56:06;;;;;;;9.15;2.25;;;24.30;92.30;;;;;;4999658;28;261970;-68
2023/07/17 09:58:34;;;;;;;7.43;1.73;;;24.60;92.50;;;;;;5020939;28;20120;-69
2023/07/17 10:01:03;;;;;;;11.75;1.70;;;24.90;92.30;;;;;;5021682;28;252715;-68
2023/07/17 10:03:30;;;;;;;8.77;1.98;;;24.50;91.00;;;;;;5040640;28;20045;-70
2023/07/17 10:05:57;;;;;;;9.50;2.00;;;24.20;91.80;;;;;;5029441;28;20053;-69
2023/07/17 10:08:27;;;;;;;9.25;1.80;;;24.20;92.40;;;;;;5023665;28;157615;-70
2023/07/17 10:10:54;;;;;;;8.90;2.00;;;24.40;92.00;;;;;;5007629;28;20050;-70
2023/07/17 10:13:20;;;;;;;8.40;2.10;;;23.80;92.80;;;;;;4998399;28;258512;-69
2023/07/17 10:15:47;;;;;;;7.50;2.08;;;23.40;92.20;;;;;;5008352;28;20050;-69
2023/07/17 10:18:13;;;;;;;7.70;1.90;;;22.60;93.20;;;;;;5003546;28;264585;-70
2023/07/17 10:20:51;;;;;;;9.43;2.10;;;22.90;92.20;;;;;;5008765;28;20046;-69
2023/07/17 10:23:29;;;;;;;9.65;2.13;;;22.80;91.90;;;;;;4993545;28;89826;-69
2023/07/17 10:26:21;;;;;;;10.10;2.20;;;23.00;92.00;;;;;;5005536;28;20054;-69
2023/07/17 10:28:49;;;;;;;9.55;2.33;;;23.30;92.10;;;;;;4992405;28;20056;-68
2023/07/17 10:31:23;;;;;;;7.43;1.97;;;23.50;91.60;;;;;;4992075;28;270417;-70
2023/07/17 10:33:52;;;;;;;9.00;2.00;;;23.70;91.90;;;;;;5003123;28;20076;-69
2023/07/17 10:36:35;;;;;;;9.40;2.10;;;23.90;92.10;;;;;;4990933;28;266064;-70
2023/07/17 10:39:04;;;;;;;9.95;2.22;;;24.20;91.80;;;;;;5018255;28;20400;-70
2023/07/17 10:41:30;;;;;;;10.77;1.92;;;24.20;91.10;;;;;;4986613;28;275225;-69
2023/07/17 10:44:00;;;;;;;8.93;1.98;;;23.80;91.30;;;;;;5017815;28;20525;-69
2023/07/17 10:46:29;;;;;;;9.32;2.00;;;23.50;91.60;;;;;;4993650;28;259345;-70
2023/07/17 10:49:05;;;;;;;10.30;2.08;;;23.90;91.20;;;;;;5024809;28;20177;-70
2023/07/17 10:51:31;;;;;;;8.90;2.28;;;24.30;90.40;;;;;;4997524;28;256746;-70
2023/07/17 10:53:57;;;;;;;8.82;2.28;;;24.60;91.00;;;;;;5023986;28;20070;-69
2023/07/17 10:56:24;;;;;;;9.77;2.35;;;24.80;90.70;;;;;;4981504;28;284100;-69
2023/07/17 10:58:51;;;;;;;8.88;2.30;;;24.40;90.80;;;;;;5018949;28;20065;-69
2023/07/17 11:01:18;;;;;;;12.13;2.50;;;24.30;91.00;;;;;;4990619;28;272283;-69
2023/07/17 11:03:47;;;;;;;12.40;2.05;;;23.80;91.70;;;;;;5023003;28;20066;-68
2023/07/17 11:06:17;;;;;;;10.67;2.40;;;23.10;91.70;;;;;;4996248;28;271145;-69
2023/07/17 11:08:48;;;;;;;;;;;22.90;92.00;;;;;;5027549;28;20066;-69
2023/07/17 11:11:14;;;;;;;9.27;2.28;;;23.40;92.20;;;;;;4995759;28;264339;-70
2023/07/17 11:13:44;;;;;;;8.25;2.28;;;23.90;92.10;;;;;;5026777;28;20072;-69
2023/07/17 11:16:11;;;;;;;9.88;2.40;;;24.30;91.60;;;;;;4994361;28;255909;-69
2023/07/17 11:18:45;;;;;;;11.15;2.50;;;24.60;92.00;;;;;;5007077;28;20069;-69
2023/07/17 11:21:12;;;;;;;9.75;2.28;;;24.90;91.00;;;;;;4992216;28;271934;-68
2023/07/17 11:23:50;;;;;;;9.48;2.30;;;25.00;91.30;;;;;;5019583;28;20476;-70
2023/07/17 11:26:20;;;;;;;8.57;2.10;;;25.20;91.20;;;;;;4991360;28;275065;-68
2023/07/17 11:28:55;;;;;;;9.57;2.22;;;25.10;90.90;;;;;;5040621;28;20064;-68
2023/07/17 11:31:24;;;;;;;9.00;2.08;;;24.80;90.40;;;;;;5008248;28;280770;-69
2023/07/17 11:33:59;;;;;;;11.82;2.40;;;24.90;91.40;;;;;;5006744;28;20538;-69
2023/07/17 11:36:26;;;;;;;10.60;2.00;;;24.30;91.00;;;;;;4993359;28;260395;-68
2023/07/17 11:38:57;;;;;;;8.77;2.38;;;23.50;92.50;;;;;;5021083;28;20057;-68
2023/07/17 11:41:25;;;;;;;10.80;2.35;;;22.20;94.80;;;;;;4993332;28;278294;-69
2023/07/17 11:43:56;;;;;;;8.57;2.00;;;21.40;96.40;;;;;;5005051;28;20053;-69
2023/07/17 11:46:23;;;;;;;8.32;1.95;;;20.80;96.40;;;;;;4992731;28;266426;-68
2023/07/17 11:48:53;;;;;;;8.63;2.22;;;20.80;96.50;;;;;;5024822;28;20058;-68
2023/07/17 11:51:24;;;;;;;10.38;2.20;;;21.10;96.80;;;;;;4991397;28;256615;-69
2023/07/17 11:53:55;;;;;;;8.93;2.20;;;22.00;96.20;;;;;;5019645;28;20498;-69
2023/07/17 11:56:42;;;;;;;9.73;2.60;;;22.70;95.40;;;;;;4980399;28;273483;-70
2023/07/17 11:59:22;;;;;;;9.80;1.92;;;23.20;94.20;;;;;;5017041;28;20427;-70
2023/07/17 12:01:48;;;;;;;11.37;2.20;;;23.50;93.80;;;;;;4990110;28;256850;-70
2023/07/17 12:04:22;;;;;;;11.35;2.03;;;23.70;92.90;;;;;;5007294;28;20042;-69
2023/07/17 12:06:48;;;;;;;9.40;1.98;;;24.30;91.90;;;;;;5006899;28;255266;-69
2023/07/17 12:09:15;;;;;;;10.70;1.80;;;24.20;92.30;;;;;;5033172;28;20048;-69
2023/07/17 12:11:45;;;;;;;9.40;2.22;;;24.10;92.70;;;;;;5016980;28;266558;-68
2023/07/17 12:14:16;;;;;;;8.10;1.98;;;23.90;92.40;;;;;;5016509;28;20049;-68
2023/07/17 12:16:43;;;;;;;7.75;1.80;;;23.60;92.70;;;;;;4999921;28;265725;-68
2023/07/17 12:19:10;;;;;;;10.40;1.80;;;23.70;92.70;;;;;;5017378;28;20050;-69
2023/07/17 12:21:37;;;;;;;8.52;1.80;;;23.60;92.70;;;;;;4993126;28;275475;-69
2023/07/17 12:24:03;;;;;;;7.50;1.52;;;23.80;92.50;;;;;;5022303;28;20048;-69
2023/07/17 12:26:29;;;;;;;9.27;1.83;;;24.10;91.20;;;;;;4996189;28;277067;-69
2023/07/17 12:28:56;;;;;;;8.18;1.80;;;24.10;91.50;;;;;;5023394;28;20396;-69
2023/07/17 12:31:22;;;;;;;9.05;2.13;;;24.00;91.80;;;;;;4994202;28;260152;-70
2023/07/17 12:33:48;;;;;;;10.57;2.13;;;24.40;91.60;;;;;;5019249;28;20046;-69
2023/07/17 12:36:14;;;;;;;7.63;1.90;;;24.20;91.90;;;;;;4989766;28;263360;-69